sensor_id;sensor_type;location;lat;lon;timestamp;pressure;altitude;pressure_sealevel;temperature
70819;BMP280;58439;51.046;13.692;2023-01-24T00:01:59;102103.56;;;1.81
70819;BMP280;58439;51.046;13.692;2023-01-24T00:04:26;102113.00;;;1.82
70819;BMP280;58439;51.046;13.692;2023-01-24T00:06:53;102128.38;;;1.84
70819;BMP280;58439;51.046;13.692;2023-01-24T00:09:21;102117.16;;;1.85
70819;BMP280;58439;51.046;13.692;2023-01-24T00:11:48;102125.53;;;1.88
70819;BMP280;58439;51.046;13.692;2023-01-24T00:14:15;102128.91;;;1.90
70819;BMP280;58439;51.046;13.692;2023-01-24T00:16:42;102123.72;;;1.90
70819;BMP280;58439;51.046;13.692;2023-01-24T00:19:09;102125.41;;;1.91
70819;BMP280;58439;51.046;13.692;2023-01-24T00:21:37;102127.97;;;1.91
70819;BMP280;58439;51.046;13.692;2023-01-24T00:24:07;102127.97;;;1.91
70819;BMP280;58439;51.046;13.692;2023-01-24T00:26:34;102126.31;;;1.90
70819;BMP280;58439;51.046;13.692;2023-01-24T00:29:01;102121.97;;;1.91
70819;BMP280;58439;51.046;13.692;2023-01-24T00:31:30;102113.41;;;1.90
70819;BMP280;58439;51.046;13.692;2023-01-24T00:33:58;102117.66;;;1.91
70819;BMP280;58439;51.046;13.692;2023-01-24T00:36:25;102118.56;;;1.90
70819;BMP280;58439;51.046;13.692;2023-01-24T00:38:54;102121.06;;;1.92
70819;BMP280;58439;51.046;13.692;2023-01-24T00:41:25;102123.50;;;1.95
70819;BMP280;58439;51.046;13.692;2023-01-24T00:43:53;102125.25;;;1.94
70819;BMP280;58439;51.046;13.692;2023-01-24T00:46:20;102128.72;;;1.93
70819;BMP280;58439;51.046;13.692;2023-01-24T00:48:48;102130.41;;;1.94
70819;BMP280;58439;51.046;13.692;2023-01-24T00:51:15;102137.28;;;1.94
70819;BMP280;58439;51.046;13.692;2023-01-24T00:53:43;102140.63;;;1.96
70819;BMP280;58439;51.046;13.692;2023-01-24T00:56:10;102136.41;;;1.95
70819;BMP280;58439;51.046;13.692;2023-01-24T00:58:40;102145.88;;;1.94
70819;BMP280;58439;51.046;13.692;2023-01-24T01:01:07;102143.31;;;1.94
70819;BMP280;58439;51.046;13.692;2023-01-24T01:03:36;102140.78;;;1.93
70819;BMP280;58439;51.046;13.692;2023-01-24T01:06:13;102139.13;;;1.92
70819;BMP280;58439;51.046;13.692;2023-01-24T01:08:42;102142.63;;;1.91
70819;BMP280;58439;51.046;13.692;2023-01-24T01:11:09;102149.53;;;1.90
70819;BMP280;58439;51.046;13.692;2023-01-24T01:13:36;102150.50;;;1.88
70819;BMP280;58439;51.046;13.692;2023-01-24T01:16:06;102149.59;;;1.89
70819;BMP280;58439;51.046;13.692;2023-01-24T01:18:35;102144.44;;;1.89
70819;BMP280;58439;51.046;13.692;2023-01-24T01:21:05;102142.91;;;1.86
70819;BMP280;58439;51.046;13.692;2023-01-24T01:23:32;102140.47;;;1.83
70819;BMP280;58439;51.046;13.692;2023-01-24T01:26:03;102136.13;;;1.84
70819;BMP280;58439;51.046;13.692;2023-01-24T01:28:32;102131.72;;;1.86
70819;BMP280;58439;51.046;13.692;2023-01-24T01:31:01;102131.66;;;1.87
70819;BMP280;58439;51.046;13.692;2023-01-24T01:33:30;102134.94;;;1.89
70819;BMP280;58439;51.046;13.692;2023-01-24T01:35:57;102127.28;;;1.88
70819;BMP280;58439;51.046;13.692;2023-01-24T01:38:25;102127.41;;;1.86
70819;BMP280;58439;51.046;13.692;2023-01-24T01:40:55;102128.31;;;1.85
70819;BMP280;58439;51.046;13.692;2023-01-24T01:43:27;102125.03;;;1.82
70819;BMP280;58439;51.046;13.692;2023-01-24T01:46:19;102131.81;;;1.84
70819;BMP280;58439;51.046;13.692;2023-01-24T01:48:57;102125.03;;;1.82
70819;BMP280;58439;51.046;13.692;2023-01-24T01:51:44;102122.53;;;1.80
70819;BMP280;58439;51.046;13.692;2023-01-24T01:54:25;102116.63;;;1.78
70819;BMP280;58439;51.046;13.692;2023-01-24T01:57:01;102126.03;;;1.79
70819;BMP280;58439;51.046;13.692;2023-01-24T02:02:41;102118.16;;;1.82
70819;BMP280;58439;51.046;13.692;2023-01-24T02:05:13;102117.28;;;1.82
70819;BMP280;58439;51.046;13.692;2023-01-24T02:07:59;102113.16;;;1.79
70819;BMP280;58439;51.046;13.692;2023-01-24T02:10:30;102108.97;;;1.77
70819;BMP280;58439;51.046;13.692;2023-01-24T02:13:16;102119.88;;;1.82
70819;BMP280;58439;51.046;13.692;2023-01-24T02:15:49;102106.91;;;1.83
70819;BMP280;58439;51.046;13.692;2023-01-24T02:18:40;102101.59;;;1.86
70819;BMP280;58439;51.046;13.692;2023-01-24T02:21:13;102095.34;;;1.90
70819;BMP280;58439;51.046;13.692;2023-01-24T02:24:04;102100.50;;;1.90
70819;BMP280;58439;51.046;13.692;2023-01-24T02:26:33;102103.00;;;1.92
70819;BMP280;58439;51.046;13.692;2023-01-24T02:29:05;102091.00;;;1.91
70819;BMP280;58439;51.046;13.692;2023-01-24T02:31:58;102088.50;;;1.89
70819;BMP280;58439;51.046;13.692;2023-01-24T02:34:29;102085.09;;;1.89
70819;BMP280;58439;51.046;13.692;2023-01-24T02:37:09;102086.84;;;1.88
70819;BMP280;58439;51.046;13.692;2023-01-24T02:40:00;102089.31;;;1.90
70819;BMP280;58439;51.046;13.692;2023-01-24T02:42:38;102098.09;;;1.87
70819;BMP280;58439;51.046;13.692;2023-01-24T02:45:25;102102.44;;;1.87
70819;BMP280;58439;51.046;13.692;2023-01-24T02:47:55;102100.69;;;1.87
70819;BMP280;58439;51.046;13.692;2023-01-24T02:50:29;102111.00;;;1.87
70819;BMP280;58439;51.046;13.692;2023-01-24T02:53:17;102100.69;;;1.87
70819;BMP280;58439;51.046;13.692;2023-01-24T02:56:08;102102.31;;;1.88
70819;BMP280;58439;51.046;13.692;2023-01-24T02:58:58;102093.00;;;1.86
70819;BMP280;58439;51.046;13.692;2023-01-24T03:01:27;102097.34;;;1.85
70819;BMP280;58439;51.046;13.692;2023-01-24T03:03:55;102098.34;;;1.83
70819;BMP280;58439;51.046;13.692;2023-01-24T03:06:23;102100.94;;;1.83
70819;BMP280;58439;51.046;13.692;2023-01-24T03:08:51;102094.16;;;1.80
70819;BMP280;58439;51.046;13.692;2023-01-24T03:11:29;102097.66;;;1.79
70819;BMP280;58439;51.046;13.692;2023-01-24T03:13:59;102103.72;;;1.78
70819;BMP280;58439;51.046;13.692;2023-01-24T03:16:45;102101.22;;;1.77
70819;BMP280;58439;51.046;13.692;2023-01-24T03:19:31;102104.63;;;1.77
70819;BMP280;58439;51.046;13.692;2023-01-24T03:22:16;102101.38;;;1.73
70819;BMP280;58439;51.046;13.692;2023-01-24T03:25:03;102103.13;;;1.73
70819;BMP280;58439;51.046;13.692;2023-01-24T03:27:50;102108.22;;;1.74
70819;BMP280;58439;51.046;13.692;2023-01-24T03:30:36;102111.69;;;1.73
70819;BMP280;58439;51.046;13.692;2023-01-24T03:33:25;102108.28;;;1.73
70819;BMP280;58439;51.046;13.692;2023-01-24T03:36:14;102116.84;;;1.73
70819;BMP280;58439;51.046;13.692;2023-01-24T03:38:53;102118.59;;;1.73
70819;BMP280;58439;51.046;13.692;2023-01-24T03:41:39;102114.25;;;1.73
70819;BMP280;58439;51.046;13.692;2023-01-24T03:44:08;102114.25;;;1.73
70819;BMP280;58439;51.046;13.692;2023-01-24T03:46:36;102116.78;;;1.75
70819;BMP280;58439;51.046;13.692;2023-01-24T03:49:09;102111.63;;;1.75
70819;BMP280;58439;51.046;13.692;2023-01-24T03:51:38;102114.13;;;1.77
70819;BMP280;58439;51.046;13.692;2023-01-24T03:54:25;102121.03;;;1.76
70819;BMP280;58439;51.046;13.692;2023-01-24T03:57:00;102117.69;;;1.74
70819;BMP280;58439;51.046;13.692;2023-01-24T03:59:30;102114.25;;;1.73
70819;BMP280;58439;51.046;13.692;2023-01-24T04:01:57;102122.78;;;1.76
70819;BMP280;58439;51.046;13.692;2023-01-24T04:04:28;102121.19;;;1.73
70819;BMP280;58439;51.046;13.692;2023-01-24T04:07:19;102114.25;;;1.73
70819;BMP280;58439;51.046;13.692;2023-01-24T04:10:00;102114.25;;;1.73
70819;BMP280;58439;51.046;13.692;2023-01-24T04:12:32;102115.28;;;1.71
70819;BMP280;58439;51.046;13.692;2023-01-24T04:15:00;102104.88;;;1.72
70819;BMP280;58439;51.046;13.692;2023-01-24T04:17:27;102109.94;;;1.74
70819;BMP280;58439;51.046;13.692;2023-01-24T04:19:55;102106.63;;;1.72
70819;BMP280;58439;51.046;13.692;2023-01-24T04:22:24;102103.22;;;1.71
70819;BMP280;58439;51.046;13.692;2023-01-24T04:24:54;102117.84;;;1.71
70819;BMP280;58439;51.046;13.692;2023-01-24T04:27:24;102112.59;;;1.72
70819;BMP280;58439;51.046;13.692;2023-01-24T04:30:00;102110.03;;;1.72
70819;BMP280;58439;51.046;13.692;2023-01-24T04:32:31;102104.97;;;1.71
70819;BMP280;58439;51.046;13.692;2023-01-24T04:35:03;102104.97;;;1.71
70819;BMP280;58439;51.046;13.692;2023-01-24T04:37:46;102108.44;;;1.70
70819;BMP280;58439;51.046;13.692;2023-01-24T04:40:27;102103.22;;;1.71
70819;BMP280;58439;51.046;13.692;2023-01-24T04:42:56;102108.44;;;1.70
70819;BMP280;58439;51.046;13.692;2023-01-24T04:45:24;102102.63;;;1.66
70819;BMP280;58439;51.046;13.692;2023-01-24T04:47:54;102107.78;;;1.66
70819;BMP280;58439;51.046;13.692;2023-01-24T04:50:23;102102.44;;;1.69
70819;BMP280;58439;51.046;13.692;2023-01-24T04:52:53;102112.00;;;1.67
70819;BMP280;58439;51.046;13.692;2023-01-24T04:55:21;102112.94;;;1.66
70819;BMP280;58439;51.046;13.692;2023-01-24T04:57:50;102115.44;;;1.68
70819;BMP280;58439;51.046;13.692;2023-01-24T05:00:21;102115.56;;;1.65
70819;BMP280;58439;51.046;13.692;2023-01-24T05:02:51;102114.75;;;1.64
70819;BMP280;58439;51.046;13.692;2023-01-24T05:05:20;102117.41;;;1.63
70819;BMP280;58439;51.046;13.692;2023-01-24T05:07:50;102118.25;;;1.63
70819;BMP280;58439;51.046;13.692;2023-01-24T05:10:21;102121.69;;;1.62
70819;BMP280;58439;51.046;13.692;2023-01-24T05:12:52;102119.13;;;1.62
70819;BMP280;58439;51.046;13.692;2023-01-24T05:15:21;102131.97;;;1.64
70819;BMP280;58439;51.046;13.692;2023-01-24T05:17:51;102127.41;;;1.69
70819;BMP280;58439;51.046;13.692;2023-01-24T05:20:21;102118.91;;;1.67
70819;BMP280;58439;51.046;13.692;2023-01-24T05:22:50;102121.50;;;1.67
70819;BMP280;58439;51.046;13.692;2023-01-24T05:25:18;102124.97;;;1.66
70819;BMP280;58439;51.046;13.692;2023-01-24T05:27:45;102120.72;;;1.65
70819;BMP280;58439;51.046;13.692;2023-01-24T05:30:15;102132.94;;;1.61
70819;BMP280;58439;51.046;13.692;2023-01-24T05:32:43;102132.88;;;1.63
70819;BMP280;58439;51.046;13.692;2023-01-24T05:35:11;102137.19;;;1.62
70819;BMP280;58439;51.046;13.692;2023-01-24T05:37:47;102136.53;;;1.59
70819;BMP280;58439;51.046;13.692;2023-01-24T05:40:17;102134.78;;;1.59
70819;BMP280;58439;51.046;13.692;2023-01-24T05:42:44;102127.78;;;1.61
70819;BMP280;58439;51.046;13.692;2023-01-24T05:45:13;102130.22;;;1.64
70819;BMP280;58439;51.046;13.692;2023-01-24T05:47:40;102130.75;;;1.71
70819;BMP280;58439;51.046;13.692;2023-01-24T05:50:10;102129.94;;;1.70
70819;BMP280;58439;51.046;13.692;2023-01-24T05:52:39;102129.75;;;1.73
70819;BMP280;58439;51.046;13.692;2023-01-24T05:55:10;102139.09;;;1.76
70819;BMP280;58439;51.046;13.692;2023-01-24T05:57:43;102138.25;;;1.76
70819;BMP280;58439;51.046;13.692;2023-01-24T06:00:32;102149.41;;;1.76
70819;BMP280;58439;51.046;13.692;2023-01-24T06:03:21;102150.94;;;1.80
70819;BMP280;58439;51.046;13.692;2023-01-24T06:05:53;102142.41;;;1.78
70819;BMP280;58439;51.046;13.692;2023-01-24T06:08:23;102152.81;;;1.77
70819;BMP280;58439;51.046;13.692;2023-01-24T06:10:50;102152.97;;;1.73
70819;BMP280;58439;51.046;13.692;2023-01-24T06:13:20;102163.28;;;1.73
70819;BMP280;58439;51.046;13.692;2023-01-24T06:15:47;102166.69;;;1.74
70819;BMP280;58439;51.046;13.692;2023-01-24T06:18:18;102161.53;;;1.74
70819;BMP280;58439;51.046;13.692;2023-01-24T06:20:48;102160.69;;;1.73
70819;BMP280;58439;51.046;13.692;2023-01-24T06:23:26;102169.38;;;1.72
70819;BMP280;58439;51.046;13.692;2023-01-24T06:26:01;102169.38;;;1.72
70819;BMP280;58439;51.046;13.692;2023-01-24T06:28:29;102169.28;;;1.74
70819;BMP280;58439;51.046;13.692;2023-01-24T06:33:57;102170.75;;;1.80
70819;BMP280;58439;51.046;13.692;2023-01-24T06:39:23;102165.25;;;1.86
70819;BMP280;58439;51.046;13.692;2023-01-24T06:41:51;102164.38;;;1.87
70819;BMP280;58439;51.046;13.692;2023-01-24T06:44:22;102174.41;;;1.91
70819;BMP280;58439;51.046;13.692;2023-01-24T06:47:02;102159.09;;;1.88
70819;BMP280;58439;51.046;13.692;2023-01-24T06:49:29;102165.00;;;1.90
70819;BMP280;58439;51.046;13.692;2023-01-24T06:51:57;102160.03;;;1.87
70819;BMP280;58439;51.046;13.692;2023-01-24T06:54:24;102171.28;;;1.86
70819;BMP280;58439;51.046;13.692;2023-01-24T06:57:44;102167.91;;;1.84
70819;BMP280;58439;51.046;13.692;2023-01-24T07:00:45;102171.41;;;1.83
70819;BMP280;58439;51.046;13.692;2023-01-24T07:03:12;102174.00;;;1.83
70819;BMP280;58439;51.046;13.692;2023-01-24T07:05:40;102160.19;;;1.84
70819;BMP280;58439;51.046;13.692;2023-01-24T07:08:07;102164.44;;;1.85
70819;BMP280;58439;51.046;13.692;2023-01-24T07:10:36;102164.44;;;1.85
70819;BMP280;58439;51.046;13.692;2023-01-24T07:13:08;102168.75;;;1.85
70819;BMP280;58439;51.046;13.692;2023-01-24T07:15:36;102183.25;;;1.87
70819;BMP280;58439;51.046;13.692;2023-01-24T07:18:08;102176.22;;;1.89
70819;BMP280;58439;51.046;13.692;2023-01-24T07:20:36;102179.72;;;1.88
70819;BMP280;58439;51.046;13.692;2023-01-24T07:23:05;102182.31;;;1.88
70819;BMP280;58439;51.046;13.692;2023-01-24T07:25:33;102183.97;;;1.89
70819;BMP280;58439;51.046;13.692;2023-01-24T07:28:04;102170.09;;;1.92
70819;BMP280;58439;51.046;13.692;2023-01-24T07:30:35;102170.91;;;1.92
70819;BMP280;58439;51.046;13.692;2023-01-24T07:33:02;102165.75;;;1.92
70819;BMP280;58439;51.046;13.692;2023-01-24T07:35:29;102165.75;;;1.92
70819;BMP280;58439;51.046;13.692;2023-01-24T07:37:57;102170.00;;;1.93
70819;BMP280;58439;51.046;13.692;2023-01-24T07:40:24;102172.53;;;1.95
70819;BMP280;58439;51.046;13.692;2023-01-24T07:42:51;102169.94;;;1.95
70819;BMP280;58439;51.046;13.692;2023-01-24T07:45:18;102176.78;;;1.96
70819;BMP280;58439;51.046;13.692;2023-01-24T07:47:47;102176.69;;;1.97
70819;BMP280;58439;51.046;13.692;2023-01-24T07:50:16;102173.13;;;2.00
70819;BMP280;58439;51.046;13.692;2023-01-24T07:52:43;102181.63;;;2.02
70819;BMP280;58439;51.046;13.692;2023-01-24T07:55:10;102190.13;;;2.04
70819;BMP280;58439;51.046;13.692;2023-01-24T07:57:38;102191.78;;;2.05
70819;BMP280;58439;51.046;13.692;2023-01-24T08:00:07;102198.78;;;2.03
70819;BMP280;58439;51.046;13.692;2023-01-24T08:02:37;102203.13;;;2.03
70819;BMP280;58439;51.046;13.692;2023-01-24T08:05:05;102197.94;;;2.03
70819;BMP280;58439;51.046;13.692;2023-01-24T08:07:34;102207.28;;;2.05
70819;BMP280;58439;51.046;13.692;2023-01-24T08:10:03;102198.78;;;2.03
70819;BMP280;58439;51.046;13.692;2023-01-24T08:12:31;102198.69;;;2.05
70819;BMP280;58439;51.046;13.692;2023-01-24T08:14:58;102206.38;;;2.06
70819;BMP280;58439;51.046;13.692;2023-01-24T08:17:25;102214.78;;;2.10
70819;BMP280;58439;51.046;13.692;2023-01-24T08:19:52;102213.81;;;2.12
70819;BMP280;58439;51.046;13.692;2023-01-24T08:22:26;102212.81;;;2.15
70819;BMP280;58439;51.046;13.692;2023-01-24T08:24:56;102212.81;;;2.15
70819;BMP280;58439;51.046;13.692;2023-01-24T08:27:23;102218.72;;;2.17
70819;BMP280;58439;51.046;13.692;2023-01-24T08:29:51;102216.84;;;2.20
70819;BMP280;58439;51.046;13.692;2023-01-24T08:32:18;102217.66;;;2.21
70819;BMP280;58439;51.046;13.692;2023-01-24T08:34:46;102219.34;;;2.22
70819;BMP280;58439;51.046;13.692;2023-01-24T08:37:13;102233.91;;;2.23
70819;BMP280;58439;51.046;13.692;2023-01-24T08:39:40;102222.69;;;2.24
70819;BMP280;58439;51.046;13.692;2023-01-24T08:42:08;102233.84;;;2.24
70819;BMP280;58439;51.046;13.692;2023-01-24T08:45:02;102234.66;;;2.25
70819;BMP280;58439;51.046;13.692;2023-01-24T08:48:06;102236.50;;;2.23
70819;BMP280;58439;51.046;13.692;2023-01-24T08:50:45;102236.50;;;2.23
70819;BMP280;58439;51.046;13.692;2023-01-24T08:53:36;102239.69;;;2.28
70819;BMP280;58439;51.046;13.692;2023-01-24T08:56:26;102236.13;;;2.31
70819;BMP280;58439;51.046;13.692;2023-01-24T08:59:25;102240.44;;;2.30
70819;BMP280;58439;51.046;13.692;2023-01-24T09:02:09;102238.03;;;2.27
70819;BMP280;58439;51.046;13.692;2023-01-24T09:04:55;102236.34;;;2.26
70819;BMP280;58439;51.046;13.692;2023-01-24T09:07:25;102225.09;;;2.27
70819;BMP280;58439;51.046;13.692;2023-01-24T09:09:52;102234.53;;;2.28
70819;BMP280;58439;51.046;13.692;2023-01-24T09:12:22;102230.69;;;2.35
70819;BMP280;58439;51.046;13.692;2023-01-24T09:14:49;102238.09;;;2.41
70819;BMP280;58439;51.046;13.692;2023-01-24T09:17:19;102236.44;;;2.40
70819;BMP280;58439;51.046;13.692;2023-01-24T09:19:46;102232.94;;;2.41
70819;BMP280;58439;51.046;13.692;2023-01-24T09:22:13;102237.38;;;2.39
70819;BMP280;58439;51.046;13.692;2023-01-24T09:24:45;102238.28;;;2.38
70819;BMP280;58439;51.046;13.692;2023-01-24T09:27:13;102234.09;;;2.36
70819;BMP280;58439;51.046;13.692;2023-01-24T09:29:44;102235.53;;;2.41
70819;BMP280;58439;51.046;13.692;2023-01-24T09:32:12;102239.78;;;2.42
70819;BMP280;58439;51.046;13.692;2023-01-24T09:34:42;102233.72;;;2.43
70819;BMP280;58439;51.046;13.692;2023-01-24T09:37:20;102242.13;;;2.47
70819;BMP280;58439;51.046;13.692;2023-01-24T09:39:48;102238.56;;;2.49
70819;BMP280;58439;51.046;13.692;2023-01-24T09:42:37;102233.56;;;2.46
70819;BMP280;58439;51.046;13.692;2023-01-24T09:45:22;102229.97;;;2.49
70819;BMP280;58439;51.046;13.692;2023-01-24T09:47:59;102230.81;;;2.49
70819;BMP280;58439;51.046;13.692;2023-01-24T09:50:45;102231.72;;;2.48
70819;BMP280;58439;51.046;13.692;2023-01-24T09:53:51;102232.50;;;2.50
70819;BMP280;58439;51.046;13.692;2023-01-24T09:56:41;102230.75;;;2.51
70819;BMP280;58439;51.046;13.692;2023-01-24T09:59:23;102233.47;;;2.48
70819;BMP280;58439;51.046;13.692;2023-01-24T10:01:53;102235.91;;;2.51
70819;BMP280;58439;51.046;13.692;2023-01-24T10:04:34;102234.16;;;2.52
70819;BMP280;58439;51.046;13.692;2023-01-24T10:10:29;102231.66;;;2.50
70819;BMP280;58439;51.046;13.692;2023-01-24T10:17:07;102221.25;;;2.52
70819;BMP280;58439;51.046;13.692;2023-01-24T10:23:17;102222.91;;;2.53
70819;BMP280;58439;51.046;13.692;2023-01-24T10:26:15;102219.25;;;2.57
70819;BMP280;58439;51.046;13.692;2023-01-24T10:28:53;102220.00;;;2.59
70819;BMP280;58439;51.046;13.692;2023-01-24T10:31:37;102221.91;;;2.55
70819;BMP280;58439;51.046;13.692;2023-01-24T10:34:20;102215.91;;;2.55
70819;BMP280;58439;51.046;13.692;2023-01-24T10:36:56;102215.91;;;2.55
70819;BMP280;58439;51.046;13.692;2023-01-24T10:39:26;102202.84;;;2.58
70819;BMP280;58439;51.046;13.692;2023-01-24T10:41:54;102207.00;;;2.60
70819;BMP280;58439;51.046;13.692;2023-01-24T10:44:28;102205.25;;;2.61
70819;BMP280;58439;51.046;13.692;2023-01-24T10:47:29;102208.59;;;2.63
70819;BMP280;58439;51.046;13.692;2023-01-24T10:50:14;102214.06;;;2.57
70819;BMP280;58439;51.046;13.692;2023-01-24T10:52:43;102207.09;;;2.59
70819;BMP280;58439;51.046;13.692;2023-01-24T10:55:38;102204.06;;;2.66
70819;BMP280;58439;51.046;13.692;2023-01-24T11:01:17;102198.91;;;2.66
70819;BMP280;58439;51.046;13.692;2023-01-24T11:03:50;102199.75;;;2.67
70819;BMP280;58439;51.046;13.692;2023-01-24T11:06:39;102200.75;;;2.64
70819;BMP280;58439;51.046;13.692;2023-01-24T11:09:20;102194.75;;;2.64
70819;BMP280;58439;51.046;13.692;2023-01-24T11:11:51;102193.00;;;2.64
70819;BMP280;58439;51.046;13.692;2023-01-24T11:14:30;102199.94;;;2.64
70819;BMP280;58439;51.046;13.692;2023-01-24T11:16:59;102197.44;;;2.62
70819;BMP280;58439;51.046;13.692;2023-01-24T11:22:21;102193.84;;;2.65
70819;BMP280;58439;51.046;13.692;2023-01-24T11:24:50;102192.00;;;2.67
70819;BMP280;58439;51.046;13.692;2023-01-24T11:27:25;102192.81;;;2.67
70819;BMP280;58439;51.046;13.692;2023-01-24T11:35:53;102192.56;;;2.72
70819;BMP280;58439;51.046;13.692;2023-01-24T11:38:42;102196.59;;;2.78
70819;BMP280;58439;51.046;13.692;2023-01-24T11:41:30;102184.66;;;2.75
70819;BMP280;58439;51.046;13.692;2023-01-24T11:47:17;102190.41;;;2.80
70819;BMP280;58439;51.046;13.692;2023-01-24T11:53:04;102178.09;;;2.85
70819;BMP280;58439;51.046;13.692;2023-01-24T11:59:03;102169.06;;;2.92
70819;BMP280;58439;51.046;13.692;2023-01-24T12:08:41;102169.25;;;2.89
70819;BMP280;58439;51.046;13.692;2023-01-24T12:11:29;102173.25;;;2.95
70819;BMP280;58439;51.046;13.692;2023-01-24T12:26:26;102169.47;;;2.85
70819;BMP280;58439;51.046;13.692;2023-01-24T12:29:16;102172.25;;;2.82
70819;BMP280;58439;51.046;13.692;2023-01-24T12:32:44;102168.84;;;2.81
70819;BMP280;58439;51.046;13.692;2023-01-24T12:43:42;102170.50;;;2.82
70819;BMP280;58439;51.046;13.692;2023-01-24T12:49:30;102170.81;;;2.76
70819;BMP280;58439;51.046;13.692;2023-01-24T12:52:46;102168.63;;;2.68
70819;BMP280;58439;51.046;13.692;2023-01-24T12:55:32;102175.56;;;2.68
70819;BMP280;58439;51.046;13.692;2023-01-24T12:58:15;102165.22;;;2.68
70819;BMP280;58439;51.046;13.692;2023-01-24T13:01:22;102170.16;;;2.72
70819;BMP280;58439;51.046;13.692;2023-01-24T13:04:39;102163.84;;;2.78
70819;BMP280;58439;51.046;13.692;2023-01-24T13:07:44;102164.41;;;2.83
70819;BMP280;58439;51.046;13.692;2023-01-24T13:10:50;102158.06;;;2.89
70819;BMP280;58439;51.046;13.692;2023-01-24T13:14:07;102157.22;;;2.88
70819;BMP280;58439;51.046;13.692;2023-01-24T13:23:43;102157.84;;;2.93
70819;BMP280;58439;51.046;13.692;2023-01-24T13:26:26;102164.09;;;2.89
70819;BMP280;58439;51.046;13.692;2023-01-24T13:29:42;102155.56;;;2.87
70819;BMP280;58439;51.046;13.692;2023-01-24T13:32:21;102161.56;;;2.88
70819;BMP280;58439;51.046;13.692;2023-01-24T13:34:59;102166.84;;;2.86
70819;BMP280;58439;51.046;13.692;2023-01-24T13:37:35;102162.59;;;2.85
70819;BMP280;58439;51.046;13.692;2023-01-24T13:40:24;102168.66;;;2.84
70819;BMP280;58439;51.046;13.692;2023-01-24T13:42:52;102163.75;;;2.80
70819;BMP280;58439;51.046;13.692;2023-01-24T13:54:03;102166.69;;;2.89
70819;BMP280;58439;51.046;13.692;2023-01-24T13:57:27;102164.25;;;2.86
70819;BMP280;58439;51.046;13.692;2023-01-24T14:00:12;102154.06;;;2.83
70819;BMP280;58439;51.046;13.692;2023-01-24T14:05:40;102156.06;;;2.78
70819;BMP280;58439;51.046;13.692;2023-01-24T14:13:58;102151.22;;;2.72
70819;BMP280;58439;51.046;13.692;2023-01-24T14:19:26;102150.41;;;2.71
70819;BMP280;58439;51.046;13.692;2023-01-24T14:24:52;102162.94;;;2.63
70819;BMP280;58439;51.046;13.692;2023-01-24T14:28:02;102163.00;;;2.62
70819;BMP280;58439;51.046;13.692;2023-01-24T14:30:48;102168.84;;;2.65
70819;BMP280;58439;51.046;13.692;2023-01-24T14:33:46;102175.75;;;2.65
70819;BMP280;58439;51.046;13.692;2023-01-24T14:36:34;102170.69;;;2.63
70819;BMP280;58439;51.046;13.692;2023-01-24T14:39:23;102175.00;;;2.63
70819;BMP280;58439;51.046;13.692;2023-01-24T14:41:59;102184.41;;;2.64
70819;BMP280;58439;51.046;13.692;2023-01-24T14:44:40;102176.81;;;2.61
70819;BMP280;58439;51.046;13.692;2023-01-24T14:49:51;102180.50;;;2.57
70819;BMP280;58439;51.046;13.692;2023-01-24T14:52:26;102176.34;;;2.54
70819;BMP280;58439;51.046;13.692;2023-01-24T14:54:57;102172.94;;;2.54
70819;BMP280;58439;51.046;13.692;2023-01-24T14:57:32;102174.75;;;2.52
70819;BMP280;58439;51.046;13.692;2023-01-24T15:02:54;102181.91;;;2.46
70819;BMP280;58439;51.046;13.692;2023-01-24T15:05:32;102176.66;;;2.48
70819;BMP280;58439;51.046;13.692;2023-01-24T15:08:02;102180.00;;;2.50
70819;BMP280;58439;51.046;13.692;2023-01-24T15:10:35;102180.06;;;2.48
70819;BMP280;58439;51.046;13.692;2023-01-24T15:13:17;102178.41;;;2.47
70819;BMP280;58439;51.046;13.692;2023-01-24T15:15:46;102178.41;;;2.47
70819;BMP280;58439;51.046;13.692;2023-01-24T15:21:03;102177.03;;;2.40
70819;BMP280;58439;51.046;13.692;2023-01-24T15:23:32;102176.22;;;2.40
70819;BMP280;58439;51.046;13.692;2023-01-24T15:29:43;102178.88;;;2.38
70819;BMP280;58439;51.046;13.692;2023-01-24T15:32:37;102187.53;;;2.37
70819;BMP280;58439;51.046;13.692;2023-01-24T15:40:27;102188.69;;;2.32
70819;BMP280;58439;51.046;13.692;2023-01-24T15:42:54;102185.13;;;2.34
70819;BMP280;58439;51.046;13.692;2023-01-24T15:45:51;102179.13;;;2.34
70819;BMP280;58439;51.046;13.692;2023-01-24T15:48:38;102177.28;;;2.36
70819;BMP280;58439;51.046;13.692;2023-01-24T15:51:32;102180.69;;;2.36
70819;BMP280;58439;51.046;13.692;2023-01-24T15:54:14;102179.03;;;2.35
70819;BMP280;58439;51.046;13.692;2023-01-24T15:56:44;102176.53;;;2.34
70819;BMP280;58439;51.046;13.692;2023-01-24T15:59:26;102182.53;;;2.34
70819;BMP280;58439;51.046;13.692;2023-01-24T16:01:54;102178.22;;;2.35
70819;BMP280;58439;51.046;13.692;2023-01-24T16:04:22;102181.47;;;2.38
70819;BMP280;58439;51.046;13.692;2023-01-24T16:06:50;102185.63;;;2.41
70819;BMP280;58439;51.046;13.692;2023-01-24T16:09:17;102185.56;;;2.42
70819;BMP280;58439;51.046;13.692;2023-01-24T16:11:46;102180.41;;;2.42
70819;BMP280;58439;51.046;13.692;2023-01-24T16:14:23;102177.03;;;2.40
70819;BMP280;58439;51.046;13.692;2023-01-24T16:16:53;102189.22;;;2.38
70819;BMP280;58439;51.046;13.692;2023-01-24T16:19:22;102190.09;;;2.37
70819;BMP280;58439;51.046;13.692;2023-01-24T16:21:50;102176.53;;;2.34
70819;BMP280;58439;51.046;13.692;2023-01-24T16:24:18;102167.94;;;2.33
70819;BMP280;58439;51.046;13.692;2023-01-24T16:26:48;102176.88;;;2.28
70819;BMP280;58439;51.046;13.692;2023-01-24T16:29:21;102177.72;;;2.28
70819;BMP280;58439;51.046;13.692;2023-01-24T16:31:48;102173.47;;;2.27
70819;BMP280;58439;51.046;13.692;2023-01-24T16:34:15;102170.06;;;2.27
70819;BMP280;58439;51.046;13.692;2023-01-24T16:36:42;102168.38;;;2.25
70819;BMP280;58439;51.046;13.692;2023-01-24T16:39:20;102166.56;;;2.28
70819;BMP280;58439;51.046;13.692;2023-01-24T16:41:50;102164.88;;;2.27
70819;BMP280;58439;51.046;13.692;2023-01-24T16:44:18;102167.63;;;2.23